ACA1258 KMCO-CYHZ
Flight info
| Callsign | ACA1258 |
|---|---|
| Flight time | N/A |
| Altitude | 33000 |
| Route | FATHE4 VIYAP Q87 JROSS DCT ELLDE Q97 PAACK DCT JAMIE/N0455F350 DCT CONFR Q133 JFK DCT FEXXX DCT VENTE Q97 BEEKN DCT ENE Q822 ALLEX FUNDY5 |
| Aircraft | B738/M-SDE2E3FGHIRWXY/LB1 |
Departure
| Time | N/A |
|---|---|
| Airport | Orlando International Airport (KMCO) |
Arrival
| Time | 2026-05-05 23:38 |
|---|---|
| Airport | Halifax / Stanfield International Airport (CYHZ) |
| Time | Latitude | Longitude | Altitude | Speed | Heading |
|---|---|---|---|---|---|
| 2026-05-05 23:11 | 44.78806 | -65.81469 | 27158 ft | 453 kts | 65° |
| 2026-05-05 23:12 | 44.80122 | -65.77461 | 26683 ft | 449 kts | 65° |
| 2026-05-05 23:12 | 44.81425 | -65.73485 | 26213 ft | 446 kts | 65° |
| 2026-05-05 23:12 | 44.82703 | -65.69583 | 25757 ft | 443 kts | 65° |
| 2026-05-05 23:12 | 44.83986 | -65.65657 | 25295 ft | 440 kts | 65° |
| 2026-05-05 23:13 | 44.85259 | -65.61756 | 24834 ft | 437 kts | 65° |
| 2026-05-05 23:13 | 44.86524 | -65.57879 | 24378 ft | 434 kts | 65° |
| 2026-05-05 23:13 | 44.87779 | -65.54022 | 23919 ft | 431 kts | 65° |
| 2026-05-05 23:13 | 44.88853 | -65.50093 | 23436 ft | 428 kts | 78° |
| 2026-05-05 23:14 | 44.89116 | -65.45954 | 23004 ft | 422 kts | 93° |
| 2026-05-05 23:14 | 44.89060 | -65.41840 | 22555 ft | 419 kts | 94° |
| 2026-05-05 23:14 | 44.88961 | -65.37748 | 22103 ft | 416 kts | 95° |
| 2026-05-05 23:14 | 44.88855 | -65.33681 | 21657 ft | 414 kts | 95° |
| 2026-05-05 23:15 | 44.88759 | -65.29683 | 21223 ft | 412 kts | 94° |
| 2026-05-05 23:15 | 44.88672 | -65.25652 | 20781 ft | 410 kts | 94° |
| 2026-05-05 23:15 | 44.88593 | -65.21640 | 20347 ft | 408 kts | 94° |
| 2026-05-05 23:15 | 44.88519 | -65.17651 | 19909 ft | 407 kts | 94° |
| 2026-05-05 23:16 | 44.88448 | -65.13669 | 19475 ft | 405 kts | 94° |
| 2026-05-05 23:16 | 44.88377 | -65.09711 | 19037 ft | 403 kts | 94° |
| 2026-05-05 23:16 | 44.88306 | -65.05770 | 18603 ft | 401 kts | 94° |
| 2026-05-05 23:16 | 44.88233 | -65.01847 | 18173 ft | 399 kts | 94° |
| 2026-05-05 23:17 | 44.88160 | -64.97950 | 17743 ft | 397 kts | 94° |
| 2026-05-05 23:17 | 44.88087 | -64.94116 | 17320 ft | 395 kts | 94° |
| 2026-05-05 23:17 | 44.88011 | -64.90255 | 16895 ft | 393 kts | 94° |
| 2026-05-05 23:17 | 44.87935 | -64.86413 | 16483 ft | 391 kts | 94° |
| 2026-05-05 23:18 | 44.87857 | -64.82586 | 16051 ft | 390 kts | 94° |
| 2026-05-05 23:18 | 44.87779 | -64.78776 | 15645 ft | 387 kts | 94° |
| 2026-05-05 23:18 | 44.87700 | -64.74993 | 15224 ft | 385 kts | 94° |
| 2026-05-05 23:18 | 44.87620 | -64.71222 | 14811 ft | 383 kts | 94° |
| 2026-05-05 23:19 | 44.87538 | -64.67480 | 14400 ft | 381 kts | 94° |
| 2026-05-05 23:19 | 44.87457 | -64.63808 | 13999 ft | 379 kts | 94° |
| 2026-05-05 23:19 | 44.87375 | -64.60097 | 13576 ft | 377 kts | 94° |
| 2026-05-05 23:19 | 44.87293 | -64.56412 | 13174 ft | 375 kts | 94° |
| 2026-05-05 23:20 | 44.87210 | -64.52749 | 12774 ft | 373 kts | 94° |
| 2026-05-05 23:20 | 44.87127 | -64.49101 | 12384 ft | 371 kts | 94° |
| 2026-05-05 23:20 | 44.87040 | -64.45468 | 11971 ft | 370 kts | 94° |
| 2026-05-05 23:20 | 44.86954 | -64.41851 | 11569 ft | 368 kts | 94° |
| 2026-05-05 23:21 | 44.86866 | -64.38250 | 11176 ft | 367 kts | 94° |
| 2026-05-05 23:21 | 44.86778 | -64.34670 | 10783 ft | 364 kts | 95° |
| 2026-05-05 23:21 | 44.86692 | -64.31180 | 10548 ft | 354 kts | 95° |
| 2026-05-05 23:21 | 44.86609 | -64.27778 | 10407 ft | 341 kts | 95° |
| 2026-05-05 23:22 | 44.86527 | -64.24490 | 10259 ft | 329 kts | 95° |
| 2026-05-05 23:22 | 44.86446 | -64.21294 | 10136 ft | 325 kts | 94° |
| 2026-05-05 23:22 | 44.86630 | -64.18115 | 10041 ft | 327 kts | 81° |
| 2026-05-05 23:22 | 44.87111 | -64.14970 | 9869 ft | 330 kts | 78° |
| 2026-05-05 23:23 | 44.87642 | -64.11797 | 9581 ft | 335 kts | 78° |
| 2026-05-05 23:23 | 44.88178 | -64.08598 | 9275 ft | 334 kts | 78° |
| 2026-05-05 23:23 | 44.88701 | -64.05423 | 8954 ft | 330 kts | 79° |
| 2026-05-05 23:23 | 44.89205 | -64.02291 | 8632 ft | 325 kts | 79° |
| 2026-05-05 23:24 | 44.89695 | -63.99203 | 8343 ft | 321 kts | 79° |
| 2026-05-05 23:24 | 44.90174 | -63.96149 | 8037 ft | 316 kts | 80° |
| 2026-05-05 23:24 | 44.90634 | -63.93184 | 7756 ft | 311 kts | 80° |
| 2026-05-05 23:24 | 44.91092 | -63.90226 | 7502 ft | 305 kts | 80° |
| 2026-05-05 23:25 | 44.91534 | -63.87361 | 7220 ft | 294 kts | 81° |
| 2026-05-05 23:25 | 44.91962 | -63.84578 | 6931 ft | 286 kts | 81° |
| 2026-05-05 23:25 | 44.92375 | -63.81874 | 6666 ft | 279 kts | 81° |
| 2026-05-05 23:25 | 44.92778 | -63.79215 | 6415 ft | 277 kts | 81° |
| 2026-05-05 23:26 | 44.93180 | -63.76563 | 6176 ft | 276 kts | 81° |
| 2026-05-05 23:26 | 44.93574 | -63.73974 | 5929 ft | 271 kts | 81° |
| 2026-05-05 23:26 | 44.93966 | -63.71398 | 5668 ft | 268 kts | 82° |
| 2026-05-05 23:26 | 44.94353 | -63.68859 | 5535 ft | 261 kts | 82° |
| 2026-05-05 23:27 | 44.94730 | -63.66370 | 5431 ft | 259 kts | 82° |
| 2026-05-05 23:27 | 44.95105 | -63.63888 | 5337 ft | 260 kts | 82° |
| 2026-05-05 23:27 | 44.95483 | -63.61374 | 5224 ft | 264 kts | 83° |
| 2026-05-05 23:27 | 44.95912 | -63.58844 | 5091 ft | 270 kts | 71° |
| 2026-05-05 23:28 | 44.97005 | -63.56704 | 4898 ft | 269 kts | 38° |
| 2026-05-05 23:28 | 44.98474 | -63.55159 | 4777 ft | 259 kts | 32° |
| 2026-05-05 23:28 | 44.99923 | -63.53770 | 4636 ft | 252 kts | 31° |
| 2026-05-05 23:28 | 45.01365 | -63.52389 | 4508 ft | 250 kts | 32° |
| 2026-05-05 23:29 | 45.02788 | -63.51008 | 4391 ft | 245 kts | 32° |
| 2026-05-05 23:29 | 45.04181 | -63.49638 | 4286 ft | 242 kts | 33° |
| 2026-05-05 23:29 | 45.05544 | -63.48291 | 4139 ft | 236 kts | 33° |
| 2026-05-05 23:29 | 45.06875 | -63.46974 | 4011 ft | 232 kts | 33° |
| 2026-05-05 23:30 | 45.08187 | -63.45682 | 3888 ft | 224 kts | 33° |
| 2026-05-05 23:30 | 45.09443 | -63.44427 | 3933 ft | 221 kts | 35° |
| 2026-05-05 23:30 | 45.10434 | -63.42844 | 3974 ft | 217 kts | 72° |
| 2026-05-05 23:30 | 45.10634 | -63.40809 | 3984 ft | 205 kts | 112° |
| 2026-05-05 23:31 | 45.10190 | -63.38964 | 3995 ft | 196 kts | 123° |
| 2026-05-05 23:31 | 45.09530 | -63.37346 | 3954 ft | 181 kts | 151° |
| 2026-05-05 23:31 | 45.08496 | -63.36720 | 3999 ft | 155 kts | 184° |
| 2026-05-05 23:31 | 45.07419 | -63.36568 | 3998 ft | 156 kts | 183° |
| 2026-05-05 23:32 | 45.06338 | -63.36418 | 3983 ft | 154 kts | 184° |
| 2026-05-05 23:32 | 45.05281 | -63.36269 | 4007 ft | 154 kts | 184° |
| 2026-05-05 23:32 | 45.04204 | -63.36163 | 3987 ft | 153 kts | 193° |
| 2026-05-05 23:32 | 45.03271 | -63.36750 | 3819 ft | 149 kts | 214° |
| 2026-05-05 23:33 | 45.02372 | -63.37463 | 3620 ft | 147 kts | 211° |
| 2026-05-05 23:33 | 45.01498 | -63.38121 | 3435 ft | 138 kts | 212° |
| 2026-05-05 23:33 | 45.00713 | -63.38794 | 3258 ft | 128 kts | 216° |
| 2026-05-05 23:33 | 44.99978 | -63.39479 | 3134 ft | 126 kts | 216° |
| 2026-05-05 23:34 | 44.99247 | -63.40183 | 2943 ft | 127 kts | 216° |
| 2026-05-05 23:34 | 44.98512 | -63.40905 | 2776 ft | 129 kts | 216° |
| 2026-05-05 23:34 | 44.97781 | -63.41628 | 2582 ft | 124 kts | 215° |
| 2026-05-05 23:34 | 44.97100 | -63.42308 | 2442 ft | 120 kts | 217° |
| 2026-05-05 23:35 | 44.96421 | -63.42981 | 2294 ft | 119 kts | 214° |
| 2026-05-05 23:35 | 44.95753 | -63.43635 | 2118 ft | 118 kts | 214° |
| 2026-05-05 23:35 | 44.95068 | -63.44315 | 1976 ft | 121 kts | 215° |
| 2026-05-05 23:35 | 44.94384 | -63.44991 | 1818 ft | 118 kts | 214° |
| 2026-05-05 23:36 | 44.93679 | -63.45682 | 1649 ft | 126 kts | 212° |
| 2026-05-05 23:36 | 44.92966 | -63.46396 | 1481 ft | 123 kts | 214° |
| 2026-05-05 23:36 | 44.92266 | -63.47090 | 1315 ft | 124 kts | 213° |
| 2026-05-05 23:36 | 44.91547 | -63.47810 | 1142 ft | 128 kts | 216° |
| 2026-05-05 23:37 | 44.90811 | -63.48493 | 949 ft | 126 kts | 210° |
| 2026-05-05 23:37 | 44.90090 | -63.49207 | 803 ft | 125 kts | 217° |
| 2026-05-05 23:37 | 44.89419 | -63.49903 | 632 ft | 118 kts | 214° |
| 2026-05-05 23:37 | 44.88751 | -63.50557 | 485 ft | 117 kts | 215° |
| 2026-05-05 23:38 | 44.88180 | -63.51129 | 449 ft | 73 kts | 214° |
| 2026-05-05 23:38 | 44.87916 | -63.51392 | 449 ft | 35 kts | 215° |
| 2026-05-05 23:38 | 44.87727 | -63.51579 | 450 ft | 31 kts | 214° |
| 2026-05-05 23:38 | 44.87571 | -63.51732 | 449 ft | 23 kts | 215° |
| 2026-05-05 23:39 | 44.87466 | -63.51881 | 448 ft | 21 kts | 240° |
| 2026-05-05 23:39 | 44.87450 | -63.52038 | 450 ft | 11 kts | 283° |
| 2026-05-05 23:39 | 44.87494 | -63.52116 | 451 ft | 10 kts | 349° |
| 2026-05-05 23:39 | 44.87557 | -63.52076 | 451 ft | 11 kts | 34° |
| 2026-05-05 23:40 | 44.87627 | -63.52007 | 451 ft | 14 kts | 36° |
| 2026-05-05 23:40 | 44.87722 | -63.51913 | 451 ft | 19 kts | 35° |
| 2026-05-05 23:40 | 44.87840 | -63.51797 | 451 ft | 21 kts | 35° |
| 2026-05-05 23:40 | 44.87957 | -63.51680 | 451 ft | 20 kts | 35° |
| 2026-05-05 23:41 | 44.88072 | -63.51567 | 451 ft | 20 kts | 35° |
| 2026-05-05 23:41 | 44.88183 | -63.51457 | 451 ft | 19 kts | 35° |
| 2026-05-05 23:41 | 44.88290 | -63.51351 | 451 ft | 19 kts | 35° |
| 2026-05-05 23:41 | 44.88380 | -63.51257 | 451 ft | 16 kts | 39° |
| 2026-05-05 23:42 | 44.88461 | -63.51205 | 451 ft | 13 kts | 1° |
| 2026-05-05 23:42 | 44.88548 | -63.51225 | 451 ft | 13 kts | 350° |
| 2026-05-05 23:42 | 44.88634 | -63.51246 | 451 ft | 12 kts | 350° |
| 2026-05-05 23:42 | 44.88717 | -63.51267 | 451 ft | 12 kts | 350° |
| 2026-05-05 23:43 | 44.88798 | -63.51287 | 451 ft | 11 kts | 350° |
| 2026-05-05 23:43 | 44.88873 | -63.51305 | 451 ft | 11 kts | 350° |
| 2026-05-05 23:43 | 44.88932 | -63.51364 | 451 ft | 11 kts | 303° |
| 2026-05-05 23:43 | 44.88968 | -63.51440 | 451 ft | 8 kts | 303° |
| 2026-05-05 23:44 | 44.88978 | -63.51512 | 451 ft | 8 kts | 244° |
| 2026-05-05 23:44 | 44.88950 | -63.51547 | 451 ft | 4 kts | 212° |
| 2026-05-05 23:44 | 44.88937 | -63.51560 | 451 ft | 2 kts | 215° |
| 2026-05-05 23:44 | 44.88929 | -63.51568 | 451 ft | 1 kts | 215° |
| 2026-05-05 23:45 | 44.88925 | -63.51572 | 451 ft | 0 kts | 215° |